sensor_id;sensor_type;location;lat;lon;timestamp;temperature;humidity
25628;DHT22;40915;50.826;4.356;2022-10-04T00:00:10;12.30;99.90
25628;DHT22;40915;50.826;4.356;2022-10-04T00:02:37;12.30;99.90
25628;DHT22;40915;50.826;4.356;2022-10-04T00:05:14;12.20;99.90
25628;DHT22;40915;50.826;4.356;2022-10-04T00:07:46;12.20;99.90
25628;DHT22;40915;50.826;4.356;2022-10-04T00:10:21;12.20;99.90
25628;DHT22;40915;50.826;4.356;2022-10-04T00:12:59;12.20;99.90
25628;DHT22;40915;50.826;4.356;2022-10-04T00:25:56;12.00;99.90
25628;DHT22;40915;50.826;4.356;2022-10-04T00:28:27;12.00;99.90
25628;DHT22;40915;50.826;4.356;2022-10-04T00:44:14;11.80;99.90
25628;DHT22;40915;50.826;4.356;2022-10-04T00:46:42;11.80;99.90
25628;DHT22;40915;50.826;4.356;2022-10-04T00:49:09;11.80;99.90
25628;DHT22;40915;50.826;4.356;2022-10-04T00:51:41;11.80;99.90
25628;DHT22;40915;50.826;4.356;2022-10-04T00:54:22;11.70;99.90
25628;DHT22;40915;50.826;4.356;2022-10-04T00:57:01;11.70;99.90
25628;DHT22;40915;50.826;4.356;2022-10-04T00:59:37;11.70;99.90
25628;DHT22;40915;50.826;4.356;2022-10-04T01:02:19;11.70;99.90
25628;DHT22;40915;50.826;4.356;2022-10-04T01:05:16;11.70;99.90
25628;DHT22;40915;50.826;4.356;2022-10-04T01:07:56;11.60;99.90
25628;DHT22;40915;50.826;4.356;2022-10-04T01:10:31;11.60;99.90
25628;DHT22;40915;50.826;4.356;2022-10-04T01:13:18;11.60;99.90
25628;DHT22;40915;50.826;4.356;2022-10-04T01:16:04;11.60;99.90
25628;DHT22;40915;50.826;4.356;2022-10-04T01:18:34;11.60;99.90
25628;DHT22;40915;50.826;4.356;2022-10-04T01:23:43;11.50;99.90
25628;DHT22;40915;50.826;4.356;2022-10-04T01:29:02;11.50;99.90
25628;DHT22;40915;50.826;4.356;2022-10-04T01:31:32;11.50;99.90
25628;DHT22;40915;50.826;4.356;2022-10-04T01:33:59;11.50;99.90
25628;DHT22;40915;50.826;4.356;2022-10-04T01:36:26;11.40;99.90
25628;DHT22;40915;50.826;4.356;2022-10-04T01:38:52;11.40;99.90
25628;DHT22;40915;50.826;4.356;2022-10-04T01:46:55;11.40;99.90
25628;DHT22;40915;50.826;4.356;2022-10-04T01:49:28;11.40;99.90
25628;DHT22;40915;50.826;4.356;2022-10-04T01:52:02;11.30;99.90
25628;DHT22;40915;50.826;4.356;2022-10-04T01:54:35;11.30;99.90
25628;DHT22;40915;50.826;4.356;2022-10-04T01:57:19;11.30;99.90
25628;DHT22;40915;50.826;4.356;2022-10-04T01:59:58;11.30;99.90
25628;DHT22;40915;50.826;4.356;2022-10-04T02:04:55;11.30;99.90
25628;DHT22;40915;50.826;4.356;2022-10-04T02:07:23;11.30;99.90
25628;DHT22;40915;50.826;4.356;2022-10-04T02:09:55;11.30;99.90
25628;DHT22;40915;50.826;4.356;2022-10-04T02:12:25;11.20;99.90
25628;DHT22;40915;50.826;4.356;2022-10-04T02:14:53;11.20;99.90
25628;DHT22;40915;50.826;4.356;2022-10-04T02:17:25;11.20;99.90
25628;DHT22;40915;50.826;4.356;2022-10-04T02:19:53;11.10;99.90
25628;DHT22;40915;50.826;4.356;2022-10-04T02:22:19;11.10;99.90
25628;DHT22;40915;50.826;4.356;2022-10-04T02:24:47;11.10;99.90
25628;DHT22;40915;50.826;4.356;2022-10-04T02:27:14;11.00;99.90
25628;DHT22;40915;50.826;4.356;2022-10-04T02:29:40;11.10;99.90
25628;DHT22;40915;50.826;4.356;2022-10-04T02:32:07;11.00;99.90
25628;DHT22;40915;50.826;4.356;2022-10-04T02:34:53;11.00;99.90
25628;DHT22;40915;50.826;4.356;2022-10-04T02:37:21;11.00;99.90
25628;DHT22;40915;50.826;4.356;2022-10-04T02:39:53;10.90;99.90
25628;DHT22;40915;50.826;4.356;2022-10-04T02:45:25;10.90;99.90
25628;DHT22;40915;50.826;4.356;2022-10-04T02:47:59;10.90;99.90
25628;DHT22;40915;50.826;4.356;2022-10-04T02:50:33;10.90;99.90
25628;DHT22;40915;50.826;4.356;2022-10-04T02:55:36;10.80;99.90
25628;DHT22;40915;50.826;4.356;2022-10-04T02:58:08;10.80;99.90
25628;DHT22;40915;50.826;4.356;2022-10-04T03:00:57;10.80;99.90
25628;DHT22;40915;50.826;4.356;2022-10-04T03:03:29;10.70;99.90
25628;DHT22;40915;50.826;4.356;2022-10-04T03:08:25;10.70;99.90
25628;DHT22;40915;50.826;4.356;2022-10-04T03:10:52;10.70;99.90
25628;DHT22;40915;50.826;4.356;2022-10-04T03:13:19;10.70;99.90
25628;DHT22;40915;50.826;4.356;2022-10-04T03:15:46;10.70;99.90
25628;DHT22;40915;50.826;4.356;2022-10-04T03:18:13;10.70;99.90
25628;DHT22;40915;50.826;4.356;2022-10-04T03:20:40;10.70;99.90
25628;DHT22;40915;50.826;4.356;2022-10-04T03:23:07;10.70;99.90
25628;DHT22;40915;50.826;4.356;2022-10-04T03:28:36;10.60;99.90
25628;DHT22;40915;50.826;4.356;2022-10-04T03:31:02;10.60;99.90
25628;DHT22;40915;50.826;4.356;2022-10-04T03:33:28;10.60;99.90
25628;DHT22;40915;50.826;4.356;2022-10-04T03:35:56;10.60;99.90
25628;DHT22;40915;50.826;4.356;2022-10-04T03:38:23;10.60;99.90
25628;DHT22;40915;50.826;4.356;2022-10-04T03:40:56;10.50;99.90
25628;DHT22;40915;50.826;4.356;2022-10-04T03:43:28;10.50;99.90
25628;DHT22;40915;50.826;4.356;2022-10-04T03:46:00;10.50;99.90
25628;DHT22;40915;50.826;4.356;2022-10-04T03:48:50;10.50;99.90
25628;DHT22;40915;50.826;4.356;2022-10-04T03:51:18;10.50;99.90
25628;DHT22;40915;50.826;4.356;2022-10-04T03:53:48;10.50;99.90
25628;DHT22;40915;50.826;4.356;2022-10-04T03:56:40;10.40;99.90
25628;DHT22;40915;50.826;4.356;2022-10-04T03:59:06;10.40;99.90
25628;DHT22;40915;50.826;4.356;2022-10-04T04:04:22;10.40;99.90
25628;DHT22;40915;50.826;4.356;2022-10-04T04:12:01;10.40;99.90
25628;DHT22;40915;50.826;4.356;2022-10-04T04:14:27;10.40;99.90
25628;DHT22;40915;50.826;4.356;2022-10-04T04:16:54;10.40;99.90
25628;DHT22;40915;50.826;4.356;2022-10-04T04:19:41;10.40;99.90
25628;DHT22;40915;50.826;4.356;2022-10-04T04:22:13;10.40;99.90
25628;DHT22;40915;50.826;4.356;2022-10-04T04:24:40;10.40;99.90
25628;DHT22;40915;50.826;4.356;2022-10-04T04:27:08;10.40;99.90
25628;DHT22;40915;50.826;4.356;2022-10-04T04:29:51;10.40;99.90
25628;DHT22;40915;50.826;4.356;2022-10-04T04:32:19;10.40;99.90
25628;DHT22;40915;50.826;4.356;2022-10-04T04:34:52;10.40;99.90
25628;DHT22;40915;50.826;4.356;2022-10-04T04:37:21;10.40;99.90
25628;DHT22;40915;50.826;4.356;2022-10-04T04:39:49;10.40;99.90
25628;DHT22;40915;50.826;4.356;2022-10-04T04:44:55;10.30;99.90
25628;DHT22;40915;50.826;4.356;2022-10-04T04:47:35;10.30;99.90
25628;DHT22;40915;50.826;4.356;2022-10-04T04:50:05;10.30;99.90
25628;DHT22;40915;50.826;4.356;2022-10-04T04:52:32;10.30;99.90
25628;DHT22;40915;50.826;4.356;2022-10-04T04:54:58;10.30;99.90
25628;DHT22;40915;50.826;4.356;2022-10-04T04:57:24;10.30;99.90
25628;DHT22;40915;50.826;4.356;2022-10-04T04:59:55;10.30;99.90
25628;DHT22;40915;50.826;4.356;2022-10-04T05:02:35;10.30;99.90
25628;DHT22;40915;50.826;4.356;2022-10-04T05:05:16;10.30;99.90
25628;DHT22;40915;50.826;4.356;2022-10-04T05:07:42;10.30;99.90
25628;DHT22;40915;50.826;4.356;2022-10-04T05:10:33;10.30;99.90
25628;DHT22;40915;50.826;4.356;2022-10-04T05:13:00;10.20;99.90
25628;DHT22;40915;50.826;4.356;2022-10-04T05:15:37;10.20;99.90
25628;DHT22;40915;50.826;4.356;2022-10-04T05:20:48;10.20;99.90
25628;DHT22;40915;50.826;4.356;2022-10-04T05:23:14;10.20;99.90
25628;DHT22;40915;50.826;4.356;2022-10-04T05:25:40;10.20;99.90
25628;DHT22;40915;50.826;4.356;2022-10-04T05:28:09;10.10;99.90
25628;DHT22;40915;50.826;4.356;2022-10-04T05:33:51;10.10;99.90
25628;DHT22;40915;50.826;4.356;2022-10-04T05:36:52;10.10;99.90
25628;DHT22;40915;50.826;4.356;2022-10-04T05:39:41;10.10;99.90
25628;DHT22;40915;50.826;4.356;2022-10-04T05:42:18;10.10;99.90
25628;DHT22;40915;50.826;4.356;2022-10-04T05:44:50;10.10;99.90
25628;DHT22;40915;50.826;4.356;2022-10-04T05:47:21;10.10;99.90
25628;DHT22;40915;50.826;4.356;2022-10-04T05:49:56;10.20;99.90
25628;DHT22;40915;50.826;4.356;2022-10-04T05:52:32;10.20;99.90
25628;DHT22;40915;50.826;4.356;2022-10-04T05:55:14;10.20;99.90
25628;DHT22;40915;50.826;4.356;2022-10-04T05:58:05;10.20;99.90
25628;DHT22;40915;50.826;4.356;2022-10-04T06:06:22;10.20;99.90
25628;DHT22;40915;50.826;4.356;2022-10-04T06:09:10;10.20;99.90
25628;DHT22;40915;50.826;4.356;2022-10-04T06:14:39;10.30;99.90
25628;DHT22;40915;50.826;4.356;2022-10-04T06:17:31;10.20;99.90
25628;DHT22;40915;50.826;4.356;2022-10-04T06:22:47;10.20;99.90
25628;DHT22;40915;50.826;4.356;2022-10-04T06:28:20;10.20;99.90
25628;DHT22;40915;50.826;4.356;2022-10-04T06:52:11;11.30;99.90
25628;DHT22;40915;50.826;4.356;2022-10-04T06:54:55;11.40;99.90
25628;DHT22;40915;50.826;4.356;2022-10-04T07:00:15;12.00;99.90
25628;DHT22;40915;50.826;4.356;2022-10-04T07:02:57;12.40;99.90
25628;DHT22;40915;50.826;4.356;2022-10-04T07:05:30;13.00;99.90
25628;DHT22;40915;50.826;4.356;2022-10-04T07:08:20;13.30;99.90
25628;DHT22;40915;50.826;4.356;2022-10-04T07:11:21;13.30;99.90
25628;DHT22;40915;50.826;4.356;2022-10-04T07:14:04;13.30;99.90
25628;DHT22;40915;50.826;4.356;2022-10-04T07:16:45;13.00;99.90
25628;DHT22;40915;50.826;4.356;2022-10-04T07:24:55;13.50;99.90
25628;DHT22;40915;50.826;4.356;2022-10-04T07:30:10;13.20;99.90
25628;DHT22;40915;50.826;4.356;2022-10-04T07:32:37;13.00;99.90
25628;DHT22;40915;50.826;4.356;2022-10-04T07:37:43;12.70;99.90
25628;DHT22;40915;50.826;4.356;2022-10-04T07:40:30;12.60;99.90
25628;DHT22;40915;50.826;4.356;2022-10-04T07:43:30;12.40;99.90
25628;DHT22;40915;50.826;4.356;2022-10-04T07:46:03;12.30;99.90
25628;DHT22;40915;50.826;4.356;2022-10-04T07:48:30;12.30;99.90
25628;DHT22;40915;50.826;4.356;2022-10-04T08:03:50;12.40;99.90
25628;DHT22;40915;50.826;4.356;2022-10-04T08:06:17;12.60;99.90
25628;DHT22;40915;50.826;4.356;2022-10-04T08:15:01;13.00;99.90
25628;DHT22;40915;50.826;4.356;2022-10-04T08:18:00;13.10;99.90
25628;DHT22;40915;50.826;4.356;2022-10-04T08:20:56;13.10;99.90
25628;DHT22;40915;50.826;4.356;2022-10-04T08:32:39;13.10;99.90
25628;DHT22;40915;50.826;4.356;2022-10-04T08:39:08;13.30;99.90
25628;DHT22;40915;50.826;4.356;2022-10-04T09:06:44;14.10;99.90
25628;DHT22;40915;50.826;4.356;2022-10-04T09:09:55;14.30;99.90
25628;DHT22;40915;50.826;4.356;2022-10-04T09:18:18;14.30;99.90
25628;DHT22;40915;50.826;4.356;2022-10-04T09:29:24;14.40;99.90
25628;DHT22;40915;50.826;4.356;2022-10-04T09:35:09;14.60;99.90
25628;DHT22;40915;50.826;4.356;2022-10-04T09:45:29;15.00;99.90
25628;DHT22;40915;50.826;4.356;2022-10-04T09:59:36;15.20;99.90
25628;DHT22;40915;50.826;4.356;2022-10-04T10:26:55;15.80;99.90
25628;DHT22;40915;50.826;4.356;2022-10-04T10:43:18;16.30;99.90
25628;DHT22;40915;50.826;4.356;2022-10-04T10:54:47;16.60;99.90
25628;DHT22;40915;50.826;4.356;2022-10-04T11:06:28;16.80;99.90
25628;DHT22;40915;50.826;4.356;2022-10-04T11:19:43;17.10;99.90
25628;DHT22;40915;50.826;4.356;2022-10-04T11:30:25;17.20;99.90
25628;DHT22;40915;50.826;4.356;2022-10-04T11:44:04;17.70;99.90
25628;DHT22;40915;50.826;4.356;2022-10-04T11:49:38;17.90;99.90
25628;DHT22;40915;50.826;4.356;2022-10-04T11:52:24;18.00;99.90
25628;DHT22;40915;50.826;4.356;2022-10-04T11:57:54;17.70;99.90
25628;DHT22;40915;50.826;4.356;2022-10-04T12:00:25;17.70;99.90
25628;DHT22;40915;50.826;4.356;2022-10-04T12:08:57;17.80;99.90
25628;DHT22;40915;50.826;4.356;2022-10-04T12:34:26;18.10;99.90
25628;DHT22;40915;50.826;4.356;2022-10-04T12:42:17;18.30;99.90
25628;DHT22;40915;50.826;4.356;2022-10-04T12:56:14;18.20;99.90
25628;DHT22;40915;50.826;4.356;2022-10-04T13:07:09;18.40;99.90
25628;DHT22;40915;50.826;4.356;2022-10-04T13:18:01;18.30;99.90
25628;DHT22;40915;50.826;4.356;2022-10-04T13:20:50;18.30;99.90
25628;DHT22;40915;50.826;4.356;2022-10-04T13:28:58;18.50;99.90
25628;DHT22;40915;50.826;4.356;2022-10-04T13:34:02;18.60;99.90
25628;DHT22;40915;50.826;4.356;2022-10-04T13:39:30;18.90;99.90
25628;DHT22;40915;50.826;4.356;2022-10-04T13:47:53;18.80;99.90
25628;DHT22;40915;50.826;4.356;2022-10-04T13:58:47;18.70;99.90
25628;DHT22;40915;50.826;4.356;2022-10-04T14:01:24;18.70;99.90
25628;DHT22;40915;50.826;4.356;2022-10-04T14:07:21;18.80;99.90
25628;DHT22;40915;50.826;4.356;2022-10-04T14:09:58;18.90;99.90
25628;DHT22;40915;50.826;4.356;2022-10-04T14:18:02;18.90;99.90
25628;DHT22;40915;50.826;4.356;2022-10-04T14:23:52;19.10;99.90
25628;DHT22;40915;50.826;4.356;2022-10-04T14:35:15;18.90;99.90
25628;DHT22;40915;50.826;4.356;2022-10-04T14:43:30;18.70;99.90
25628;DHT22;40915;50.826;4.356;2022-10-04T14:48:55;18.70;99.90
25628;DHT22;40915;50.826;4.356;2022-10-04T14:57:12;18.70;99.90
25628;DHT22;40915;50.826;4.356;2022-10-04T15:07:47;18.50;99.90
25628;DHT22;40915;50.826;4.356;2022-10-04T15:10:35;18.40;99.90
25628;DHT22;40915;50.826;4.356;2022-10-04T15:13:16;18.30;99.90
25628;DHT22;40915;50.826;4.356;2022-10-04T15:16:18;18.20;99.90
25628;DHT22;40915;50.826;4.356;2022-10-04T15:18:53;18.10;99.90
25628;DHT22;40915;50.826;4.356;2022-10-04T15:21:34;18.20;99.90
25628;DHT22;40915;50.826;4.356;2022-10-04T15:27:50;18.10;99.90
25628;DHT22;40915;50.826;4.356;2022-10-04T15:35:49;18.10;99.90
25628;DHT22;40915;50.826;4.356;2022-10-04T15:38:21;18.20;99.90
25628;DHT22;40915;50.826;4.356;2022-10-04T15:41:27;18.10;99.90
25628;DHT22;40915;50.826;4.356;2022-10-04T15:47:13;17.90;99.90
25628;DHT22;40915;50.826;4.356;2022-10-04T16:06:46;17.70;99.90
25628;DHT22;40915;50.826;4.356;2022-10-04T16:17:43;17.60;99.90
25628;DHT22;40915;50.826;4.356;2022-10-04T16:23:32;17.50;99.90
25628;DHT22;40915;50.826;4.356;2022-10-04T16:42:58;17.10;99.90
25628;DHT22;40915;50.826;4.356;2022-10-04T16:46:02;17.10;99.90
25628;DHT22;40915;50.826;4.356;2022-10-04T17:05:18;16.70;99.90
25628;DHT22;40915;50.826;4.356;2022-10-04T17:18:43;16.30;99.90
25628;DHT22;40915;50.826;4.356;2022-10-04T17:21:36;16.30;99.90
25628;DHT22;40915;50.826;4.356;2022-10-04T17:24:35;16.20;99.90
25628;DHT22;40915;50.826;4.356;2022-10-04T17:38:40;15.90;99.90
25628;DHT22;40915;50.826;4.356;2022-10-04T17:44:34;15.80;99.90
25628;DHT22;40915;50.826;4.356;2022-10-04T17:47:11;15.70;99.90
25628;DHT22;40915;50.826;4.356;2022-10-04T17:49:45;15.70;99.90
25628;DHT22;40915;50.826;4.356;2022-10-04T17:52:43;15.70;99.90
25628;DHT22;40915;50.826;4.356;2022-10-04T17:55:50;15.70;99.90
25628;DHT22;40915;50.826;4.356;2022-10-04T18:01:14;15.60;99.90
25628;DHT22;40915;50.826;4.356;2022-10-04T18:03:46;15.50;99.90
25628;DHT22;40915;50.826;4.356;2022-10-04T18:06:30;15.50;99.90
25628;DHT22;40915;50.826;4.356;2022-10-04T18:09:03;15.50;99.90
25628;DHT22;40915;50.826;4.356;2022-10-04T18:11:43;15.50;99.90
25628;DHT22;40915;50.826;4.356;2022-10-04T18:16:54;15.50;99.90
25628;DHT22;40915;50.826;4.356;2022-10-04T18:22:20;15.40;99.90
25628;DHT22;40915;50.826;4.356;2022-10-04T18:25:19;15.40;99.90
25628;DHT22;40915;50.826;4.356;2022-10-04T18:28:12;15.30;99.90
25628;DHT22;40915;50.826;4.356;2022-10-04T18:30:51;15.30;99.90
25628;DHT22;40915;50.826;4.356;2022-10-04T18:33:23;15.30;99.90
25628;DHT22;40915;50.826;4.356;2022-10-04T18:38:34;15.30;99.90
25628;DHT22;40915;50.826;4.356;2022-10-04T18:41:20;15.30;99.90
25628;DHT22;40915;50.826;4.356;2022-10-04T18:44:04;15.40;99.90
25628;DHT22;40915;50.826;4.356;2022-10-04T18:46:40;15.40;99.90
25628;DHT22;40915;50.826;4.356;2022-10-04T18:49:13;15.40;99.90
25628;DHT22;40915;50.826;4.356;2022-10-04T18:55:03;15.40;99.90
25628;DHT22;40915;50.826;4.356;2022-10-04T18:57:40;15.40;99.90
25628;DHT22;40915;50.826;4.356;2022-10-04T19:00:50;15.40;99.90
25628;DHT22;40915;50.826;4.356;2022-10-04T19:06:18;15.40;99.90
25628;DHT22;40915;50.826;4.356;2022-10-04T19:11:47;15.50;99.90
25628;DHT22;40915;50.826;4.356;2022-10-04T19:15:22;15.50;99.90
25628;DHT22;40915;50.826;4.356;2022-10-04T19:20:26;15.50;99.90
25628;DHT22;40915;50.826;4.356;2022-10-04T19:26:11;15.50;99.90
25628;DHT22;40915;50.826;4.356;2022-10-04T19:28:42;15.50;99.90
25628;DHT22;40915;50.826;4.356;2022-10-04T19:31:33;15.50;99.90
25628;DHT22;40915;50.826;4.356;2022-10-04T19:34:20;15.40;99.90
25628;DHT22;40915;50.826;4.356;2022-10-04T19:36:55;15.50;99.90
25628;DHT22;40915;50.826;4.356;2022-10-04T19:42:20;15.40;99.90
25628;DHT22;40915;50.826;4.356;2022-10-04T19:50:25;15.40;99.90
25628;DHT22;40915;50.826;4.356;2022-10-04T19:53:06;15.50;99.90
25628;DHT22;40915;50.826;4.356;2022-10-04T19:55:53;15.50;99.90
25628;DHT22;40915;50.826;4.356;2022-10-04T20:01:19;15.50;99.90
25628;DHT22;40915;50.826;4.356;2022-10-04T20:03:48;15.50;99.90
25628;DHT22;40915;50.826;4.356;2022-10-04T20:06:35;15.50;99.90
25628;DHT22;40915;50.826;4.356;2022-10-04T20:11:49;15.50;99.90
25628;DHT22;40915;50.826;4.356;2022-10-04T20:19:38;15.50;99.90
25628;DHT22;40915;50.826;4.356;2022-10-04T20:35:11;15.60;99.90
25628;DHT22;40915;50.826;4.356;2022-10-04T20:40:10;15.70;99.90
25628;DHT22;40915;50.826;4.356;2022-10-04T20:42:37;15.70;99.90
25628;DHT22;40915;50.826;4.356;2022-10-04T20:47:41;15.70;99.90
25628;DHT22;40915;50.826;4.356;2022-10-04T20:50:29;15.60;99.90
25628;DHT22;40915;50.826;4.356;2022-10-04T20:52:58;15.70;99.90
25628;DHT22;40915;50.826;4.356;2022-10-04T20:55:28;15.70;99.90
25628;DHT22;40915;50.826;4.356;2022-10-04T20:57:58;15.60;99.90
25628;DHT22;40915;50.826;4.356;2022-10-04T21:00:26;15.60;99.90
25628;DHT22;40915;50.826;4.356;2022-10-04T21:03:12;15.60;99.90
25628;DHT22;40915;50.826;4.356;2022-10-04T21:05:38;15.60;99.90
25628;DHT22;40915;50.826;4.356;2022-10-04T21:08:19;15.60;99.90
25628;DHT22;40915;50.826;4.356;2022-10-04T21:11:20;15.70;99.90
25628;DHT22;40915;50.826;4.356;2022-10-04T21:14:01;15.60;99.90
25628;DHT22;40915;50.826;4.356;2022-10-04T21:16:40;15.60;99.90
25628;DHT22;40915;50.826;4.356;2022-10-04T21:21:58;15.60;99.90
25628;DHT22;40915;50.826;4.356;2022-10-04T21:24:36;15.60;99.90
25628;DHT22;40915;50.826;4.356;2022-10-04T21:27:04;15.60;99.90
25628;DHT22;40915;50.826;4.356;2022-10-04T21:29:30;15.60;99.90
25628;DHT22;40915;50.826;4.356;2022-10-04T21:31:56;15.60;99.90
25628;DHT22;40915;50.826;4.356;2022-10-04T21:34:22;15.60;99.90
25628;DHT22;40915;50.826;4.356;2022-10-04T21:36:48;15.60;99.90
25628;DHT22;40915;50.826;4.356;2022-10-04T21:39:14;15.60;99.90
25628;DHT22;40915;50.826;4.356;2022-10-04T21:41:39;15.50;99.90
25628;DHT22;40915;50.826;4.356;2022-10-04T21:44:05;15.50;99.90
25628;DHT22;40915;50.826;4.356;2022-10-04T21:46:30;15.60;99.90
25628;DHT22;40915;50.826;4.356;2022-10-04T21:48:56;15.60;99.90
25628;DHT22;40915;50.826;4.356;2022-10-04T21:51:22;15.60;99.90
25628;DHT22;40915;50.826;4.356;2022-10-04T21:53:47;15.60;99.90
25628;DHT22;40915;50.826;4.356;2022-10-04T21:56:13;15.60;99.90
25628;DHT22;40915;50.826;4.356;2022-10-04T21:58:38;15.60;99.90
25628;DHT22;40915;50.826;4.356;2022-10-04T22:01:04;15.60;99.90
25628;DHT22;40915;50.826;4.356;2022-10-04T22:03:30;15.60;99.90
25628;DHT22;40915;50.826;4.356;2022-10-04T22:05:56;15.50;99.90
25628;DHT22;40915;50.826;4.356;2022-10-04T22:08:22;15.50;99.90
25628;DHT22;40915;50.826;4.356;2022-10-04T22:10:47;15.50;99.90
25628;DHT22;40915;50.826;4.356;2022-10-04T22:13:13;15.50;99.90
25628;DHT22;40915;50.826;4.356;2022-10-04T22:15:39;15.50;99.90
25628;DHT22;40915;50.826;4.356;2022-10-04T22:18:04;15.50;99.90
25628;DHT22;40915;50.826;4.356;2022-10-04T22:20:30;15.50;99.90
25628;DHT22;40915;50.826;4.356;2022-10-04T22:22:57;15.50;99.90
25628;DHT22;40915;50.826;4.356;2022-10-04T22:25:24;15.50;99.90
25628;DHT22;40915;50.826;4.356;2022-10-04T22:27:51;15.50;99.90
25628;DHT22;40915;50.826;4.356;2022-10-04T22:30:28;15.50;99.90
25628;DHT22;40915;50.826;4.356;2022-10-04T22:33:00;15.50;99.90
25628;DHT22;40915;50.826;4.356;2022-10-04T22:35:29;15.50;99.90
25628;DHT22;40915;50.826;4.356;2022-10-04T22:37:56;15.50;99.90
25628;DHT22;40915;50.826;4.356;2022-10-04T22:40:23;15.50;99.90
25628;DHT22;40915;50.826;4.356;2022-10-04T22:42:53;15.50;99.90
25628;DHT22;40915;50.826;4.356;2022-10-04T22:45:22;15.40;99.90
25628;DHT22;40915;50.826;4.356;2022-10-04T22:47:49;15.40;99.90
25628;DHT22;40915;50.826;4.356;2022-10-04T22:52:55;15.50;99.90
25628;DHT22;40915;50.826;4.356;2022-10-04T22:55:21;15.40;99.90
25628;DHT22;40915;50.826;4.356;2022-10-04T22:57:46;15.40;99.90
25628;DHT22;40915;50.826;4.356;2022-10-04T23:00:12;15.40;99.90
25628;DHT22;40915;50.826;4.356;2022-10-04T23:02:38;15.40;99.90
25628;DHT22;40915;50.826;4.356;2022-10-04T23:05:15;15.40;99.90
25628;DHT22;40915;50.826;4.356;2022-10-04T23:07:41;15.40;99.90
25628;DHT22;40915;50.826;4.356;2022-10-04T23:10:09;15.40;99.90
25628;DHT22;40915;50.826;4.356;2022-10-04T23:12:35;15.40;99.90
25628;DHT22;40915;50.826;4.356;2022-10-04T23:15:01;15.30;99.90
25628;DHT22;40915;50.826;4.356;2022-10-04T23:17:34;15.40;99.90
25628;DHT22;40915;50.826;4.356;2022-10-04T23:20:13;15.40;99.90
25628;DHT22;40915;50.826;4.356;2022-10-04T23:22:43;15.40;99.90
25628;DHT22;40915;50.826;4.356;2022-10-04T23:27:41;15.40;99.90
25628;DHT22;40915;50.826;4.356;2022-10-04T23:30:17;15.50;99.90
25628;DHT22;40915;50.826;4.356;2022-10-04T23:32:45;15.50;99.90
25628;DHT22;40915;50.826;4.356;2022-10-04T23:35:19;15.40;99.90
25628;DHT22;40915;50.826;4.356;2022-10-04T23:37:47;15.40;99.90
25628;DHT22;40915;50.826;4.356;2022-10-04T23:40:16;15.40;99.90
25628;DHT22;40915;50.826;4.356;2022-10-04T23:42:43;15.40;99.90
25628;DHT22;40915;50.826;4.356;2022-10-04T23:45:15;15.40;99.90
25628;DHT22;40915;50.826;4.356;2022-10-04T23:47:42;15.40;99.90
25628;DHT22;40915;50.826;4.356;2022-10-04T23:50:23;15.40;99.90
25628;DHT22;40915;50.826;4.356;2022-10-04T23:52:50;15.40;99.90
25628;DHT22;40915;50.826;4.356;2022-10-04T23:55:21;15.40;99.90
25628;DHT22;40915;50.826;4.356;2022-10-04T23:57:49;15.40;99.90
